Time;durP1;ratioP1;P1;durP2;ratioP2;P2;SDS_P1;SDS_P2;PMS_P1;PMS_P2;Temp;Humidity;BMP_temperature;BMP_pressure;BME280_temperature;BME280_humidity;BME280_pressure;Samples;Min_cycle;Max_cycle;Signal;HPM_P1;HPM_P2
2023/04/15 00:00:09;;;;;;;13.45;6.80;;;;;;;6.41;69.49;100718.19;4881930;29;20029;-75
2023/04/15 00:02:36;;;;;;;11.82;7.25;;;;;;;6.37;69.54;100719.06;4862691;29;20162;-75
2023/04/15 00:05:01;;;;;;;12.80;6.75;;;;;;;6.38;70.32;100718.19;4904093;29;20033;-70
2023/04/15 00:07:27;;;;;;;12.80;7.00;;;;;;;6.34;69.44;100714.69;4862130;29;20045;-69
2023/04/15 00:09:56;;;;;;;13.07;6.68;;;;;;;6.35;69.71;100723.34;4864759;29;20465;-70
2023/04/15 00:12:23;;;;;;;15.57;7.40;;;;;;;6.31;70.24;100724.25;4881443;29;20055;-74
2023/04/15 00:14:48;;;;;;;13.05;7.05;;;;;;;6.28;69.53;100711.19;4865169;29;20516;-75
2023/04/15 00:17:14;;;;;;;14.32;6.53;;;;;;;6.27;69.99;100714.69;4862036;29;20043;-74
2023/04/15 00:19:40;;;;;;;10.48;6.43;;;;;;;6.26;70.18;100715.53;4893168;29;20048;-75
2023/04/15 00:22:06;;;;;;;11.90;6.55;;;;;;;6.22;70.57;100715.53;4895904;29;20112;-75
2023/04/15 00:24:32;;;;;;;13.02;6.60;;;;;;;6.20;70.33;100714.63;4862112;29;20455;-75
2023/04/15 00:26:58;;;;;;;12.32;6.65;;;;;;;6.18;70.05;100716.38;4896360;29;20092;-70
2023/04/15 00:29:25;;;;;;;15.20;7.15;;;;;;;6.17;70.32;100718.97;4897986;29;20111;-70
2023/04/15 00:31:50;;;;;;;14.10;7.47;;;;;;;6.09;70.92;100711.09;4865758;29;20048;-70
2023/04/15 00:34:16;;;;;;;12.15;7.00;;;;;;;6.03;70.56;100722.38;4881230;29;20458;-70
2023/04/15 00:36:41;;;;;;;11.63;6.80;;;;;;;5.96;71.07;100717.09;4865001;29;20048;-69
2023/04/15 00:39:07;;;;;;;13.93;7.03;;;;;;;5.98;71.22;100718.03;4896696;29;20054;-69
2023/04/15 00:41:33;;;;;;;13.05;7.10;;;;;;;5.97;71.61;100711.03;4865175;29;20051;-69
2023/04/15 00:43:59;;;;;;;15.15;7.45;;;;;;;5.93;71.34;100717.06;4865816;29;20100;-69
2023/04/15 00:46:26;;;;;;;15.18;7.32;;;;;;;5.94;71.68;100717.09;4865448;29;20056;-70
2023/04/15 00:48:54;;;;;;;12.13;7.82;;;;;;;5.90;71.73;100720.53;4865058;29;20048;-75
2023/04/15 00:51:20;;;;;;;11.27;7.53;;;;;;;5.84;72.14;100717.91;4864586;29;20044;-75
2023/04/15 00:53:45;;;;;;;14.90;7.70;;;;;;;5.83;71.83;100719.66;4894625;29;20052;-75
2023/04/15 00:56:11;;;;;;;13.93;7.60;;;;;;;5.80;71.30;100714.41;4874086;29;20043;-75
2023/04/15 00:58:37;;;;;;;11.95;7.43;;;;;;;5.80;71.41;100716.13;4880288;29;20500;-75
2023/04/15 01:01:03;;;;;;;15.43;7.95;;;;;;;5.77;72.27;100711.78;4864568;29;20037;-75
2023/04/15 01:03:29;;;;;;;14.07;8.13;;;;;;;5.73;72.78;100720.41;4879373;29;20084;-75
2023/04/15 01:05:57;;;;;;;16.38;8.32;;;;;;;5.68;72.00;100715.19;4879677;29;20585;-75
2023/04/15 01:08:31;;;;;;;14.30;7.85;;;;;;;5.67;71.93;100723.00;4863535;29;20143;-74
2023/04/15 01:11:02;;;;;;;16.00;8.35;;;;;;;5.66;72.61;100723.84;4863272;29;20033;-75
2023/04/15 01:13:29;;;;;;;11.13;7.78;;;;;;;5.62;72.54;100714.31;4879354;29;20390;-75
2023/04/15 01:15:56;;;;;;;12.10;7.80;;;;;;;5.63;72.29;100719.53;4864738;29;20039;-75
2023/04/15 01:18:22;;;;;;;14.63;8.65;;;;;;;5.64;72.79;100722.97;4893652;29;20081;-75
2023/04/15 01:20:48;;;;;;;12.43;8.90;;;;;;;5.59;72.92;100714.25;4879426;29;20426;-75
2023/04/15 01:23:16;;;;;;;12.40;8.07;;;;;;;5.51;72.56;100717.69;4844667;29;20112;-75
2023/04/15 01:25:42;;;;;;;11.73;8.63;;;;;;;5.51;73.55;100717.69;4848003;29;20041;-75
2023/04/15 01:28:09;;;;;;;13.10;8.35;;;;;;;5.45;73.54;100722.84;4892325;29;20045;-75
2023/04/15 01:30:35;;;;;;;12.25;8.40;;;;;;;5.44;73.77;100715.91;4877838;29;20041;-75
2023/04/15 01:33:00;;;;;;;15.73;8.55;;;;;;;5.40;73.63;100714.13;4868039;29;20060;-75
2023/04/15 01:35:26;;;;;;;11.98;8.82;;;;;;;5.43;73.97;100714.19;4866174;29;20040;-75
2023/04/15 01:37:54;;;;;;;15.82;8.95;;;;;;;5.40;74.20;100713.28;4844566;29;20413;-75
2023/04/15 01:40:20;;;;;;;19.23;9.00;;;;;;;5.38;73.97;100706.31;4850978;29;20093;-70
2023/04/15 01:42:45;;;;;;;11.55;8.93;;;;;;;5.31;74.31;100708.88;4873140;29;20708;-70
2023/04/15 01:45:12;;;;;;;14.13;8.93;;;;;;;5.33;74.36;100709.75;4869276;29;20045;-75
2023/04/15 01:47:38;;;;;;;14.65;8.93;;;;;;;5.30;74.01;100713.22;4898647;29;20184;-75
2023/04/15 01:50:04;;;;;;;16.45;9.02;;;;;;;5.29;74.25;100710.59;4867785;29;20472;-75
2023/04/15 01:52:29;;;;;;;14.18;8.65;;;;;;;5.28;74.22;100709.72;4877850;29;20045;-75
2023/04/15 01:54:55;;;;;;;15.18;8.15;;;;;;;5.30;74.51;100714.94;4850345;29;20040;-75
2023/04/15 01:57:20;;;;;;;13.75;9.32;;;;;;;5.29;74.04;100715.81;4871294;29;20033;-75
2023/04/15 01:59:46;;;;;;;14.57;8.95;;;;;;;5.31;74.12;100716.69;4868339;29;20055;-75
2023/04/15 02:02:11;;;;;;;14.70;9.68;;;;;;;5.28;74.35;100727.06;4848562;29;20044;-75
2023/04/15 02:04:37;;;;;;;12.27;8.52;;;;;;;5.28;73.44;100727.06;4852814;29;20132;-75
2023/04/15 02:07:02;;;;;;;13.30;9.43;;;;;;;5.28;74.50;100725.31;4869678;29;20056;-75
2023/04/15 02:09:28;;;;;;;13.73;9.30;;;;;;;5.25;74.12;100725.28;4847470;29;20143;-75
2023/04/15 02:11:53;;;;;;;15.80;9.65;;;;;;;5.14;75.01;100733.00;4850591;29;20155;-75
2023/04/15 02:14:19;;;;;;;16.50;9.60;;;;;;;5.05;75.26;100722.53;4874632;29;20486;-75
2023/04/15 02:16:45;;;;;;;13.50;9.95;;;;;;;5.03;76.02;100730.31;4880727;29;20408;-75
2023/04/15 02:19:11;;;;;;;13.90;9.93;;;;;;;5.03;75.81;100732.03;4854805;29;20585;-75
2023/04/15 02:21:37;;;;;;;16.27;10.13;;;;;;;5.00;76.20;100726.81;4870327;29;20406;-75
2023/04/15 02:24:03;;;;;;;17.85;10.50;;;;;;;4.99;76.09;100728.53;4879885;29;20207;-70
2023/04/15 02:26:31;;;;;;;16.00;10.00;;;;;;;5.02;76.63;100727.69;4863364;29;20057;-74
2023/04/15 02:28:56;;;;;;;16.92;10.20;;;;;;;5.02;76.41;100730.28;4894515;29;20055;-75
2023/04/15 02:31:24;;;;;;;16.30;10.65;;;;;;;5.01;76.32;100733.72;4864530;29;20088;-75
2023/04/15 02:33:49;;;;;;;13.95;10.35;;;;;;;5.00;76.68;100727.69;4875888;29;20037;-75
2023/04/15 02:36:15;;;;;;;16.20;10.52;;;;;;;5.01;76.31;100731.13;4873796;29;20509;-75
2023/04/15 02:38:41;;;;;;;15.20;10.75;;;;;;;5.00;76.41;100738.06;4885874;29;20148;-75
2023/04/15 02:41:09;;;;;;;14.25;10.27;;;;;;;4.97;76.94;100737.16;4879103;29;20096;-75
2023/04/15 02:43:34;;;;;;;17.38;10.35;;;;;;;4.93;77.24;100741.47;4891577;29;20049;-75
2023/04/15 02:46:01;;;;;;;15.98;10.40;;;;;;;4.92;76.86;100741.44;4866971;29;20045;-75
2023/04/15 02:48:26;;;;;;;14.45;10.38;;;;;;;4.91;77.08;100739.69;4876552;29;20044;-75
2023/04/15 02:50:52;;;;;;;17.45;9.73;;;;;;;4.90;77.52;100740.53;4882442;29;20461;-75
2023/04/15 02:53:18;;;;;;;14.75;9.93;;;;;;;4.85;77.61;100738.78;4855060;29;20128;-75
2023/04/15 02:55:45;;;;;;;14.75;9.38;;;;;;;4.83;78.39;100744.81;4894204;29;20042;-75
2023/04/15 02:58:10;;;;;;;12.63;9.43;;;;;;;4.81;78.16;100751.72;4905465;29;20047;-75
2023/04/15 03:00:35;;;;;;;14.77;10.30;;;;;;;4.81;78.21;100747.41;4886057;29;20041;-75
2023/04/15 03:03:02;;;;;;;12.55;9.95;;;;;;;4.78;78.93;100752.53;4896378;29;20056;-75
2023/04/15 03:05:28;;;;;;;17.95;11.20;;;;;;;4.79;79.43;100748.25;4910259;29;20051;-75
2023/04/15 03:07:53;;;;;;;12.85;9.93;;;;;;;4.78;79.29;100746.50;4865546;29;20409;-75
2023/04/15 03:10:21;;;;;;;17.50;10.23;;;;;;;4.74;79.59;100743.00;4855020;29;20483;-75
2023/04/15 03:12:46;;;;;;;13.70;10.60;;;;;;;4.72;79.63;100749.88;4908927;29;20040;-70
2023/04/15 03:15:12;;;;;;;11.95;10.07;;;;;;;4.71;79.40;100748.13;4871758;29;20060;-70
2023/04/15 03:17:37;;;;;;;14.52;10.75;;;;;;;4.72;80.48;100749.88;4906015;29;20136;-71
2023/04/15 03:20:05;;;;;;;13.80;10.25;;;;;;;4.70;79.97;100751.63;4863481;29;20044;-70
2023/04/15 03:22:31;;;;;;;16.65;10.88;;;;;;;4.67;79.75;100746.41;4895390;29;20370;-70
2023/04/15 03:24:59;;;;;;;16.15;10.75;;;;;;;4.65;80.53;100753.28;4875315;29;20111;-70
2023/04/15 03:27:25;;;;;;;17.55;11.20;;;;;;;4.63;80.27;100755.84;4867771;29;20084;-71
2023/04/15 03:29:50;;;;;;;15.90;10.45;;;;;;;4.64;80.03;100761.91;4881215;29;20074;-70
2023/04/15 03:32:16;;;;;;;16.42;10.60;;;;;;;4.61;80.67;100765.38;4884231;29;20064;-70
2023/04/15 03:34:42;;;;;;;13.38;10.55;;;;;;;4.61;80.54;100764.47;4866188;29;20052;-75
2023/04/15 03:37:07;;;;;;;16.70;11.00;;;;;;;4.55;80.79;100767.88;4911546;29;20044;-75
2023/04/15 03:39:35;;;;;;;17.00;11.00;;;;;;;4.54;81.42;100770.44;4865947;29;20044;-75
2023/04/15 03:42:02;;;;;;;15.05;10.98;;;;;;;4.48;80.80;100761.75;4891895;29;20079;-75
2023/04/15 03:44:27;;;;;;;16.20;11.18;;;;;;;4.47;80.98;100772.13;4863642;29;20032;-75
2023/04/15 03:46:53;;;;;;;14.88;10.50;;;;;;;4.43;81.37;100770.34;4898437;29;20419;-75
2023/04/15 03:49:19;;;;;;;16.30;11.05;;;;;;;4.40;80.81;100780.69;4901892;29;20080;-75
2023/04/15 03:51:45;;;;;;;14.68;11.10;;;;;;;4.41;82.07;100775.50;4890003;29;20041;-75
2023/04/15 03:54:14;;;;;;;17.50;11.70;;;;;;;4.40;82.04;100775.50;4867361;29;20051;-75
2023/04/15 03:56:39;;;;;;;17.63;11.25;;;;;;;4.37;81.60;100784.09;4890671;29;20205;-75
2023/04/15 03:59:05;;;;;;;16.40;11.25;;;;;;;4.36;81.39;100792.72;4907888;29;20127;-75
2023/04/15 04:01:30;;;;;;;15.77;11.73;;;;;;;4.35;81.51;100790.97;4896614;29;20063;-75
2023/04/15 04:03:55;;;;;;;14.77;11.82;;;;;;;4.36;81.74;100797.91;4884201;29;20425;-74
2023/04/15 04:06:21;;;;;;;15.00;11.02;;;;;;;4.36;82.30;100804.84;4883417;29;20100;-75
2023/04/15 04:08:46;;;;;;;16.30;11.93;;;;;;;4.37;82.82;100803.97;4848847;29;20053;-75
2023/04/15 04:11:12;;;;;;;15.93;11.48;;;;;;;4.34;82.34;100812.59;4884086;29;20080;-75
2023/04/15 04:13:37;;;;;;;16.70;11.13;;;;;;;4.34;82.94;100820.38;4885994;29;20056;-70
2023/04/15 04:16:05;;;;;;;18.48;11.40;;;;;;;4.31;82.79;100815.13;4877762;29;20032;-70
2023/04/15 04:18:31;;;;;;;16.83;11.95;;;;;;;4.31;83.43;100828.09;4876668;29;20182;-70
2023/04/15 04:20:57;;;;;;;14.57;11.40;;;;;;;4.28;82.58;100825.47;4889096;29;20065;-75
2023/04/15 04:23:25;;;;;;;16.80;12.45;;;;;;;4.28;83.81;100826.34;4882390;29;20044;-75
2023/04/15 04:25:51;;;;;;;16.13;11.75;;;;;;;4.28;83.47;100843.63;4851676;29;20068;-75
2023/04/15 04:28:17;;;;;;;16.30;11.18;;;;;;;4.26;83.43;100843.59;4887090;29;20041;-75
2023/04/15 04:30:43;;;;;;;17.23;11.45;;;;;;;4.28;84.13;100846.22;4901645;29;20040;-71
2023/04/15 04:33:08;;;;;;;17.33;12.40;;;;;;;4.27;84.14;100844.50;4875785;29;20048;-70
2023/04/15 04:35:36;;;;;;;16.27;12.20;;;;;;;4.26;84.34;100845.34;4875878;29;20052;-70
2023/04/15 04:38:02;;;;;;;17.08;11.38;;;;;;;4.24;84.35;100845.31;4881353;29;20040;-70
2023/04/15 04:40:28;;;;;;;16.52;12.00;;;;;;;4.24;84.57;100852.22;4884932;29;20059;-70
2023/04/15 04:42:53;;;;;;;14.77;11.23;;;;;;;4.25;84.80;100849.66;4858506;29;20036;-70
2023/04/15 04:45:19;;;;;;;17.20;11.98;;;;;;;4.25;84.67;100864.34;4877797;29;20036;-71
2023/04/15 04:47:45;;;;;;;16.73;12.13;;;;;;;4.23;84.46;100863.47;4878154;29;20249;-70
2023/04/15 04:50:11;;;;;;;16.85;11.85;;;;;;;4.25;83.99;100872.13;4892091;29;20409;-70
2023/04/15 04:52:37;;;;;;;17.63;11.60;;;;;;;4.25;84.91;100874.72;4865304;29;20044;-70
2023/04/15 04:55:03;;;;;;;16.27;12.63;;;;;;;4.25;84.90;100869.53;4890064;29;20043;-70
2023/04/15 04:57:28;;;;;;;20.35;11.85;;;;;;;4.25;84.57;100870.41;4893725;29;20037;-70
2023/04/15 04:59:55;;;;;;;15.82;11.55;;;;;;;4.26;84.87;100884.25;4861807;29;20498;-75
2023/04/15 05:02:21;;;;;;;14.82;11.00;;;;;;;4.27;85.09;100879.09;4883018;29;20041;-75
2023/04/15 05:04:46;;;;;;;15.32;11.48;;;;;;;4.28;85.08;100880.84;4861859;29;20083;-75
2023/04/15 05:07:14;;;;;;;14.13;11.65;;;;;;;4.28;85.06;100888.63;4867759;29;20036;-75
2023/04/15 05:09:41;;;;;;;16.95;11.25;;;;;;;4.29;84.98;100898.13;4889142;29;20080;-75
2023/04/15 05:12:07;;;;;;;14.05;10.90;;;;;;;4.29;84.30;100894.66;4894645;29;20047;-74
2023/04/15 05:14:33;;;;;;;17.25;11.60;;;;;;;4.32;84.66;100894.72;4861016;29;20190;-75
2023/04/15 05:16:59;;;;;;;16.35;11.73;;;;;;;4.36;85.24;100903.44;4873235;29;20044;-75
2023/04/15 05:19:25;;;;;;;16.73;11.50;;;;;;;4.41;85.16;100907.84;4860254;29;20101;-70
2023/04/15 05:21:50;;;;;;;16.50;12.45;;;;;;;4.42;85.28;100912.16;4892097;29;20059;-70
2023/04/15 05:24:17;;;;;;;17.60;12.25;;;;;;;4.48;85.31;100914.84;4876673;29;20087;-71
2023/04/15 05:26:42;;;;;;;19.40;12.82;;;;;;;4.54;85.52;100916.66;4868534;29;20472;-70
2023/04/15 05:29:07;;;;;;;17.67;12.75;;;;;;;4.60;85.39;100926.28;4860064;29;20139;-74
2023/04/15 05:31:33;;;;;;;15.68;12.00;;;;;;;4.64;85.13;100915.94;4865020;29;20386;-75
2023/04/15 05:33:59;;;;;;;17.33;12.60;;;;;;;4.69;84.93;100924.66;4847643;29;20410;-75
2023/04/15 05:36:24;;;;;;;18.08;12.65;;;;;;;4.77;84.89;100927.38;4850147;29;20059;-75
2023/04/15 05:38:50;;;;;;;16.88;11.70;;;;;;;4.81;84.43;100942.13;4850666;29;20138;-74
2023/04/15 05:41:16;;;;;;;19.35;11.95;;;;;;;4.84;84.48;100947.38;4878072;29;20081;-75
2023/04/15 05:43:42;;;;;;;15.30;12.02;;;;;;;4.83;84.35;100949.94;4862880;29;20045;-75
2023/04/15 05:46:07;;;;;;;16.35;12.65;;;;;;;4.85;84.42;100959.47;4878845;29;20059;-75
2023/04/15 05:48:33;;;;;;;16.50;12.00;;;;;;;4.88;84.10;100957.78;4875235;29;20413;-75
2023/04/15 05:50:59;;;;;;;18.55;11.63;;;;;;;4.89;84.55;100957.81;4863807;29;20420;-76
2023/04/15 05:53:24;;;;;;;16.98;12.68;;;;;;;4.91;84.48;100963.03;4863037;29;20472;-75
2023/04/15 05:55:50;;;;;;;16.27;12.48;;;;;;;4.92;84.37;100962.19;4875998;29;20140;-75
2023/04/15 05:58:15;;;;;;;17.88;11.98;;;;;;;4.94;84.57;100957.88;4847529;29;20044;-75
2023/04/15 06:00:41;;;;;;;16.85;12.20;;;;;;;4.96;84.40;100961.38;4882242;29;20058;-71
2023/04/15 06:03:06;;;;;;;15.52;12.02;;;;;;;4.98;84.78;100967.44;4875072;29;20090;-71
2023/04/15 06:05:32;;;;;;;16.75;12.45;;;;;;;5.05;84.18;100969.28;4846577;29;20065;-70
2023/04/15 06:07:57;;;;;;;18.58;12.40;;;;;;;5.11;84.32;100966.75;4846466;29;20185;-71
2023/04/15 06:10:23;;;;;;;16.95;12.73;;;;;;;5.17;83.94;100969.44;4855163;29;20048;-70
2023/04/15 06:12:48;;;;;;;17.58;12.95;;;;;;;5.29;83.88;100971.31;4862733;29;20045;-70
2023/04/15 06:15:14;;;;;;;17.55;12.90;;;;;;;5.44;84.80;100981.00;4865864;29;20058;-75
2023/04/15 06:17:39;;;;;;;16.70;12.77;;;;;;;5.57;84.79;100991.53;4886738;29;20470;-75
2023/04/15 06:20:07;;;;;;;18.27;12.90;;;;;;;5.70;84.34;100993.41;4916174;23;20107;-70
2023/04/15 06:22:32;;;;;;;18.58;12.07;;;;;;;5.77;83.83;100992.63;5387193;23;20414;-75
2023/04/15 07:53:01;;;;;;;;;;;;;;;12.75;61.05;101134.66;4901766;28;20181;-73
2023/04/15 07:55:29;;;;;;;12.52;10.00;;;;;;;13.03;62.62;101139.47;4895608;29;19952;-77
2023/04/15 07:57:54;;;;;;;12.90;9.30;;;;;;;13.35;61.34;101143.31;4863583;29;20051;-72
2023/04/15 08:00:20;;;;;;;11.07;8.05;;;;;;;13.26;58.51;101146.97;4863666;29;20393;-78
2023/04/15 08:02:47;;;;;;;11.77;9.00;;;;;;;13.43;58.91;101141.44;4865648;29;20116;-77
2023/04/15 08:05:13;;;;;;;12.75;8.18;;;;;;;13.41;58.74;101150.25;4862610;29;20112;-73
2023/04/15 08:07:38;;;;;;;7.72;6.15;;;;;;;13.40;55.24;101152.00;4858168;29;20463;-72
2023/04/15 08:10:05;;;;;;;8.20;6.32;;;;;;;13.36;55.52;101158.22;4862724;29;20071;-76
2023/04/15 08:12:30;;;;;;;7.30;5.97;;;;;;;13.60;55.12;101161.28;4861649;29;20054;-75
2023/04/15 08:14:56;;;;;;;9.00;6.10;;;;;;;13.60;55.50;101161.28;4881881;29;20553;-76
2023/04/15 08:17:22;;;;;;;8.98;6.57;;;;;;;13.77;55.86;101161.81;4878847;29;20127;-76
2023/04/15 08:19:47;;;;;;;7.95;5.82;;;;;;;13.81;55.92;101163.50;4869660;29;20418;-75
2023/04/15 08:22:13;;;;;;;6.72;5.35;;;;;;;13.71;54.50;101169.00;4869198;29;20079;-78
2023/04/15 08:24:39;;;;;;;6.78;4.97;;;;;;;13.84;54.48;101175.75;4889942;29;20501;-77
2023/04/15 08:27:05;;;;;;;7.00;5.07;;;;;;;13.71;53.67;101187.44;4884700;29;20036;-78
2023/04/15 08:29:31;;;;;;;6.68;5.15;;;;;;;13.63;53.08;101185.81;4894271;29;20068;-77
2023/04/15 08:31:59;;;;;;;7.75;5.75;;;;;;;13.38;53.74;101190.66;4866782;29;20390;-75
2023/04/15 08:34:25;;;;;;;6.82;5.25;;;;;;;13.57;56.24;101187.69;4894165;29;20044;-77
2023/04/15 08:37:02;;;;;;;7.57;5.88;;;;;;;13.55;54.42;101192.09;4847098;29;20055;-76
2023/04/15 08:39:28;;;;;;;7.85;5.00;;;;;;;13.55;52.41;101199.97;4881183;29;20043;-72
2023/04/15 08:42:02;;;;;;;6.20;4.90;;;;;;;13.54;54.66;101203.53;4880492;29;20044;-73
2023/04/15 08:44:33;;;;;;;7.97;5.85;;;;;;;13.56;53.93;101202.63;4878081;29;20044;-73
2023/04/15 08:47:06;;;;;;;7.32;5.35;;;;;;;13.76;55.86;101215.38;4893003;29;20123;-72
2023/04/15 08:49:37;;;;;;;6.65;5.47;;;;;;;13.86;52.94;101218.72;4891786;29;20489;-72
2023/04/15 08:52:04;;;;;;;8.32;5.85;;;;;;;13.58;52.39;101221.88;4898340;29;20052;-73
2023/04/15 08:54:29;;;;;;;9.15;5.93;;;;;;;13.55;53.86;101219.31;4875072;29;20472;-72
2023/04/15 08:56:57;;;;;;;7.32;5.47;;;;;;;13.71;54.65;101221.66;4891403;29;20040;-73
2023/04/15 08:59:23;;;;;;;7.47;6.00;;;;;;;13.58;53.27;101226.28;4889619;29;20115;-73
2023/04/15 09:01:54;;;;;;;8.20;6.03;;;;;;;13.51;53.60;101231.63;4883546;29;20111;-73
2023/04/15 09:04:19;;;;;;;8.45;5.15;;;;;;;13.45;53.45;101230.91;4859387;29;20056;-72
2023/04/15 09:06:45;;;;;;;7.10;4.78;;;;;;;13.36;53.98;101228.41;4866284;29;20044;-72
2023/04/15 09:09:13;;;;;;;7.15;5.43;;;;;;;13.03;55.33;101239.44;4883039;29;20037;-72
2023/04/15 09:11:39;;;;;;;6.95;5.22;;;;;;;13.02;55.76;101247.38;4894623;29;20074;-72
2023/04/15 09:14:04;;;;;;;6.72;5.03;;;;;;;12.86;54.14;101246.69;4905201;29;20048;-73
2023/04/15 09:16:30;;;;;;;5.45;4.32;;;;;;;12.77;53.88;101253.84;4884548;29;20043;-73
2023/04/15 09:18:56;;;;;;;7.90;4.93;;;;;;;12.83;55.36;101251.13;4880074;29;20183;-72
2023/04/15 09:21:22;;;;;;;9.52;5.40;;;;;;;12.92;55.51;101257.16;4895337;29;20405;-72
2023/04/15 09:23:59;;;;;;;7.55;5.20;;;;;;;13.27;55.87;101253.09;4894661;29;20036;-73
2023/04/15 09:26:40;;;;;;;8.80;5.60;;;;;;;13.59;53.93;101251.69;4897483;29;20063;-73
2023/04/15 09:29:13;;;;;;;9.82;5.07;;;;;;;13.83;55.24;101266.19;4881611;29;20063;-73
2023/04/15 09:31:40;;;;;;;5.97;4.30;;;;;;;13.79;51.23;101280.31;4899109;29;20043;-73
2023/04/15 09:34:06;;;;;;;6.20;4.68;;;;;;;13.75;53.99;101281.25;4896953;29;20044;-73
2023/04/15 09:36:53;;;;;;;6.45;4.65;;;;;;;13.69;52.89;101272.59;4873118;29;20063;-73
2023/04/15 09:39:18;;;;;;;6.28;4.63;;;;;;;13.46;53.70;101270.38;4878867;29;20044;-73
2023/04/15 09:41:44;;;;;;;7.25;4.35;;;;;;;13.47;52.74;101277.34;4888010;29;20036;-73
2023/04/15 09:44:23;;;;;;;7.70;5.28;;;;;;;13.31;53.41;101281.09;4851311;29;20044;-72
2023/04/15 09:46:49;;;;;;;5.30;4.50;;;;;;;13.44;56.84;101284.44;4896323;29;20108;-73
2023/04/15 09:49:16;;;;;;;6.35;4.47;;;;;;;13.63;52.79;101290.25;4881400;29;20048;-73
2023/04/15 09:51:42;;;;;;;10.35;5.25;;;;;;;13.59;53.64;101284.19;4883278;29;20052;-73
2023/04/15 09:54:08;;;;;;;6.90;4.80;;;;;;;13.73;52.92;101289.19;4847335;29;20090;-73
2023/04/15 09:56:37;;;;;;;6.55;4.57;;;;;;;13.86;52.80;101300.38;4887498;29;20052;-73
2023/04/15 09:59:04;;;;;;;5.60;4.10;;;;;;;13.68;50.79;101298.97;4847753;29;20064;-73
2023/04/15 10:01:30;;;;;;;6.30;4.40;;;;;;;13.61;52.60;101307.84;4875339;29;20044;-73
2023/04/15 10:03:56;;;;;;;5.88;4.60;;;;;;;13.67;51.87;101310.38;4886302;29;20043;-72
2023/04/15 10:06:24;;;;;;;6.75;4.80;;;;;;;13.78;54.19;101305.78;4867553;29;20081;-73
2023/04/15 10:08:50;;;;;;;6.55;4.70;;;;;;;13.80;53.64;101306.63;4908022;29;20055;-73
2023/04/15 10:11:22;;;;;;;6.00;4.28;;;;;;;13.88;52.52;101306.50;4884164;29;20072;-72
2023/04/15 10:13:49;;;;;;;7.07;4.50;;;;;;;14.00;53.17;101305.41;4871718;29;20044;-72
2023/04/15 10:16:18;;;;;;;5.07;3.20;;;;;;;13.96;51.92;101312.47;4897662;29;20032;-73
2023/04/15 10:18:50;;;;;;;4.05;3.00;;;;;;;14.02;52.42;101309.75;4870145;29;20050;-73
2023/04/15 10:21:17;;;;;;;3.78;2.85;;;;;;;14.30;54.72;101311.84;4865583;29;20052;-73
2023/04/15 10:23:44;;;;;;;6.95;2.83;;;;;;;14.52;50.03;101312.31;4874723;29;20048;-73
2023/04/15 10:26:11;;;;;;;5.00;2.45;;;;;;;14.80;51.88;101309.09;4882742;29;20044;-72
2023/04/15 10:28:37;;;;;;;3.47;2.20;;;;;;;14.84;50.03;101313.41;4895316;29;20135;-73
2023/04/15 10:31:04;;;;;;;2.67;2.40;;;;;;;14.83;47.16;101311.66;4876237;29;20045;-72
2023/04/15 10:33:30;;;;;;;3.70;2.58;;;;;;;14.97;48.87;101315.75;4879107;29;20047;-73
2023/04/15 10:35:56;;;;;;;4.05;2.40;;;;;;;15.09;50.21;101317.28;4888435;29;20446;-72
2023/04/15 10:38:42;;;;;;;3.85;2.70;;;;;;;15.17;50.23;101310.03;4866255;29;20135;-73
2023/04/15 10:41:18;;;;;;;2.25;1.98;;;;;;;14.94;46.79;101324.63;4894486;29;20096;-73
2023/04/15 10:43:53;;;;;;;2.72;1.83;;;;;;;14.77;47.56;101330.28;4882133;29;20040;-73
2023/04/15 10:46:44;;;;;;;2.78;1.90;;;;;;;14.94;48.16;101329.03;4913515;29;20050;-73
2023/04/15 10:49:25;;;;;;;3.42;1.90;;;;;;;14.84;46.98;101326.59;4903420;29;20523;-73
2023/04/15 10:51:58;;;;;;;3.00;2.15;;;;;;;14.75;48.07;101329.44;4896230;29;20496;-72
2023/04/15 10:54:24;;;;;;;2.42;2.22;;;;;;;14.79;49.36;101335.53;4882652;29;20051;-73
2023/04/15 10:57:05;;;;;;;3.03;2.15;;;;;;;14.75;48.80;101342.63;4893817;29;20045;-73
2023/04/15 10:59:31;;;;;;;3.75;2.38;;;;;;;14.75;50.83;101334.69;4893863;29;20434;-72
2023/04/15 11:02:02;;;;;;;3.90;2.60;;;;;;;14.79;50.36;101338.16;4878217;29;20361;-72
2023/04/15 11:04:53;;;;;;;2.63;2.00;;;;;;;15.00;50.26;101339.47;4866832;29;20055;-72
2023/04/15 11:07:39;;;;;;;2.92;2.10;;;;;;;15.01;50.27;101336.78;4886134;29;20037;-73
2023/04/15 11:10:17;;;;;;;2.65;2.30;;;;;;;15.03;49.22;101332.34;4899465;29;20037;-72
2023/04/15 11:12:50;;;;;;;3.95;2.65;;;;;;;14.96;49.51;101337.78;4890376;29;20040;-72
2023/04/15 11:15:36;;;;;;;3.78;2.95;;;;;;;15.07;49.69;101335.78;4897595;29;20040;-73
2023/04/15 11:18:21;;;;;;;5.03;3.42;;;;;;;14.90;52.10;101342.28;4902141;29;20445;-72
2023/04/15 11:20:58;;;;;;;4.22;3.72;;;;;;;14.86;52.69;101337.97;4892510;29;20037;-72
2023/04/15 11:23:46;;;;;;;6.22;3.78;;;;;;;15.07;53.87;101341.06;4862873;29;20081;-72
2023/04/15 11:26:12;;;;;;;4.20;3.53;;;;;;;15.00;52.25;101336.84;4906514;29;20044;-71
2023/04/15 11:28:40;;;;;;;5.05;3.45;;;;;;;15.23;50.45;101346.88;4868005;29;20465;-79
2023/04/15 11:31:15;;;;;;;5.80;3.25;;;;;;;15.41;52.24;101341.16;4883952;29;20044;-72
2023/04/15 11:33:55;;;;;;;3.08;2.60;;;;;;;15.33;50.31;101342.22;4894851;29;20055;-73
2023/04/15 11:36:26;;;;;;;4.38;3.13;;;;;;;15.21;50.87;101344.25;4881431;29;20044;-72
2023/04/15 11:38:52;;;;;;;5.05;2.22;;;;;;;15.03;47.33;101348.16;4890933;29;20040;-72
2023/04/15 11:41:22;;;;;;;4.13;1.95;;;;;;;14.85;48.76;101353.84;4880969;29;20413;-73
2023/04/15 11:43:49;;;;;;;3.55;2.22;;;;;;;14.79;51.48;101352.22;4886077;29;20469;-72
2023/04/15 11:46:15;;;;;;;3.65;2.67;;;;;;;14.70;49.82;101353.28;4869358;29;20044;-73
2023/04/15 11:48:44;;;;;;;3.33;2.10;;;;;;;14.70;49.38;101357.69;4886610;29;20119;-72
2023/04/15 11:51:11;;;;;;;3.03;2.30;;;;;;;14.55;49.11;101359.72;4889633;29;20406;-72
2023/04/15 11:53:48;;;;;;;4.00;2.47;;;;;;;14.69;50.36;101362.06;4860835;29;20061;-72
2023/04/15 11:56:19;;;;;;;3.55;2.53;;;;;;;14.50;49.62;101373.88;4891812;29;20055;-72
2023/04/15 11:58:46;;;;;;;3.95;2.53;;;;;;;14.75;49.72;101376.06;4863663;29;20048;-72
2023/04/15 12:01:12;;;;;;;3.60;2.50;;;;;;;14.69;51.62;101371.78;4875403;29;20123;-72
2023/04/15 12:03:42;;;;;;;4.45;2.63;;;;;;;14.68;51.63;101377.94;4898134;29;20097;-71
2023/04/15 12:06:19;;;;;;;5.15;2.88;;;;;;;14.65;52.79;101378.00;4880288;29;20048;-71
2023/04/15 12:09:08;;;;;;;3.65;2.70;;;;;;;14.65;51.79;101383.28;4863220;29;20255;-72
2023/04/15 12:11:50;;;;;;;4.40;2.70;;;;;;;14.72;53.37;101382.25;4898749;29;20049;-72
2023/04/15 12:14:31;;;;;;;3.40;2.63;;;;;;;14.83;52.01;101382.91;4874604;29;20183;-71
2023/04/15 12:17:00;;;;;;;6.32;3.70;;;;;;;14.96;52.84;101377.38;4894653;29;20043;-71
2023/04/15 12:19:28;;;;;;;7.07;3.75;;;;;;;14.84;52.06;101387.28;4858131;29;20058;-71
2023/04/15 12:22:14;;;;;;;5.10;3.83;;;;;;;14.70;51.42;101386.69;4873383;29;20102;-72
2023/04/15 12:24:50;;;;;;;4.72;3.05;;;;;;;14.40;50.00;101391.63;4894690;29;20036;-71
2023/04/15 12:27:16;;;;;;;5.28;2.92;;;;;;;14.63;51.17;101393.84;4869268;29;20083;-72
2023/04/15 12:29:42;;;;;;;4.60;3.00;;;;;;;14.86;51.35;101390.75;4898524;29;20067;-72
2023/04/15 12:32:09;;;;;;;4.00;2.80;;;;;;;15.14;54.30;101410.41;4870895;29;20131;-72
2023/04/15 12:34:50;;;;;;;4.95;2.92;;;;;;;15.37;52.42;101401.97;4850595;29;20505;-73
2023/04/15 12:37:15;;;;;;;5.18;2.83;;;;;;;15.66;52.97;101408.34;4898275;29;20445;-71
2023/04/15 12:39:43;;;;;;;6.47;3.60;;;;;;;15.39;50.27;101416.88;4893193;29;20040;-72
2023/04/15 12:42:10;;;;;;;3.58;2.55;;;;;;;15.47;48.65;101419.34;4892771;29;20040;-72
2023/04/15 12:44:37;;;;;;;8.55;2.80;;;;;;;15.31;46.74;101421.47;4887982;29;20053;-72
2023/04/15 12:47:03;;;;;;;4.20;2.50;;;;;;;15.24;48.74;101433.94;4892925;29;20029;-72
2023/04/15 12:49:31;;;;;;;4.28;3.17;;;;;;;14.88;49.77;101425.03;4896041;29;20389;-71
2023/04/15 12:52:01;;;;;;;4.65;2.75;;;;;;;14.87;52.18;101432.06;4892963;29;20087;-72